sensor_id;sensor_type;location;lat;lon;timestamp;pressure;altitude;pressure_sealevel;temperature;humidity
13800;BME280;6971;50.028;9.258;2023-05-11T00:02:24;99172.97;;;7.67;100.00
13800;BME280;6971;50.028;9.258;2023-05-11T00:07:24;99179.44;;;7.60;100.00
13800;BME280;6971;50.028;9.258;2023-05-11T00:12:25;99175.47;;;7.70;100.00
13800;BME280;6971;50.028;9.258;2023-05-11T00:17:25;99175.38;;;7.53;100.00
13800;BME280;6971;50.028;9.258;2023-05-11T00:22:26;99164.75;;;7.56;100.00
13800;BME280;6971;50.028;9.258;2023-05-11T00:27:26;99173.06;;;7.47;100.00
13800;BME280;6971;50.028;9.258;2023-05-11T00:32:26;99162.81;;;7.40;100.00
13800;BME280;6971;50.028;9.258;2023-05-11T00:37:27;99161.56;;;7.49;100.00
13800;BME280;6971;50.028;9.258;2023-05-11T00:42:27;99162.69;;;7.43;100.00
13800;BME280;6971;50.028;9.258;2023-05-11T00:47:27;99153.78;;;7.48;100.00
13800;BME280;6971;50.028;9.258;2023-05-11T00:52:28;99155.81;;;7.41;100.00
13800;BME280;6971;50.028;9.258;2023-05-11T00:57:28;99146.59;;;7.51;100.00
13800;BME280;6971;50.028;9.258;2023-05-11T01:02:34;99154.47;;;7.51;100.00
13800;BME280;6971;50.028;9.258;2023-05-11T01:07:47;99144.22;;;7.47;100.00
13800;BME280;6971;50.028;9.258;2023-05-11T01:13:09;99150.56;;;7.41;100.00
13800;BME280;6971;50.028;9.258;2023-05-11T01:18:30;99146.63;;;7.32;100.00
13800;BME280;6971;50.028;9.258;2023-05-11T01:23:59;99143.91;;;7.34;100.00
13800;BME280;6971;50.028;9.258;2023-05-11T01:34:29;99146.75;;;7.29;100.00
13800;BME280;6971;50.028;9.258;2023-05-11T01:39:36;99154.09;;;7.21;100.00
13800;BME280;6971;50.028;9.258;2023-05-11T01:44:39;99145.44;;;7.18;100.00
13800;BME280;6971;50.028;9.258;2023-05-11T01:49:50;99146.34;;;7.17;100.00
13800;BME280;6971;50.028;9.258;2023-05-11T01:54:53;99148.28;;;7.14;100.00
13800;BME280;6971;50.028;9.258;2023-05-11T01:59:54;99147.47;;;7.12;100.00
13800;BME280;6971;50.028;9.258;2023-05-11T02:04:57;99155.56;;;7.07;100.00
13800;BME280;6971;50.028;9.258;2023-05-11T02:09:59;99153.78;;;7.08;100.00
13800;BME280;6971;50.028;9.258;2023-05-11T02:15:00;99155.75;;;7.02;100.00
13800;BME280;6971;50.028;9.258;2023-05-11T02:20:03;99154.00;;;7.03;100.00
13800;BME280;6971;50.028;9.258;2023-05-11T02:25:06;99154.75;;;7.05;100.00
13800;BME280;6971;50.028;9.258;2023-05-11T02:30:08;99162.72;;;7.03;100.00
13800;BME280;6971;50.028;9.258;2023-05-11T02:35:22;99155.03;;;6.99;100.00
13800;BME280;6971;50.028;9.258;2023-05-11T02:40:33;99162.91;;;6.99;100.00
13800;BME280;6971;50.028;9.258;2023-05-11T02:45:37;99164.94;;;6.92;100.00
13800;BME280;6971;50.028;9.258;2023-05-11T02:50:42;99159.69;;;6.92;100.00
13800;BME280;6971;50.028;9.258;2023-05-11T02:55:42;99160.69;;;6.89;100.00
13800;BME280;6971;50.028;9.258;2023-05-11T03:00:43;99158.19;;;6.86;100.00
13800;BME280;6971;50.028;9.258;2023-05-11T03:05:44;99158.13;;;6.88;100.00
13800;BME280;6971;50.028;9.258;2023-05-11T03:10:45;99153.59;;;6.91;100.00
13800;BME280;6971;50.028;9.258;2023-05-11T03:15:46;99161.53;;;6.90;100.00
13800;BME280;6971;50.028;9.258;2023-05-11T03:20:47;99153.75;;;6.88;100.00
13800;BME280;6971;50.028;9.258;2023-05-11T03:25:49;99151.53;;;6.79;100.00
13800;BME280;6971;50.028;9.258;2023-05-11T03:30:51;99155.03;;;6.78;100.00
13800;BME280;6971;50.028;9.258;2023-05-11T03:35:52;99152.56;;;6.75;100.00
13800;BME280;6971;50.028;9.258;2023-05-11T03:40:56;99154.31;;;6.74;100.00
13800;BME280;6971;50.028;9.258;2023-05-11T03:45:57;99147.47;;;6.72;100.00
13800;BME280;6971;50.028;9.258;2023-05-11T03:50:58;99143.91;;;6.73;100.00
13800;BME280;6971;50.028;9.258;2023-05-11T03:55:59;99147.19;;;6.78;100.00
13800;BME280;6971;50.028;9.258;2023-05-11T04:00:59;99143.50;;;6.82;100.00
13800;BME280;6971;50.028;9.258;2023-05-11T04:06:00;99148.69;;;6.84;100.00
13800;BME280;6971;50.028;9.258;2023-05-11T04:11:00;99150.31;;;6.86;100.00
13800;BME280;6971;50.028;9.258;2023-05-11T04:16:00;99149.22;;;6.92;100.00
13800;BME280;6971;50.028;9.258;2023-05-11T04:21:01;99152.53;;;6.96;100.00
13800;BME280;6971;50.028;9.258;2023-05-11T04:26:01;99152.59;;;7.15;100.00
13800;BME280;6971;50.028;9.258;2023-05-11T04:31:01;99148.34;;;7.12;100.00
13800;BME280;6971;50.028;9.258;2023-05-11T04:36:05;99154.59;;;7.29;100.00
13800;BME280;6971;50.028;9.258;2023-05-11T04:41:07;99147.56;;;7.29;100.00
13800;BME280;6971;50.028;9.258;2023-05-11T04:46:07;99160.19;;;7.40;100.00
13800;BME280;6971;50.028;9.258;2023-05-11T04:51:08;99154.31;;;7.35;100.00
13800;BME280;6971;50.028;9.258;2023-05-11T04:56:09;99161.56;;;7.68;100.00
13800;BME280;6971;50.028;9.258;2023-05-11T05:01:09;99154.91;;;7.61;100.00
13800;BME280;6971;50.028;9.258;2023-05-11T05:06:10;99169.16;;;7.75;100.00
13800;BME280;6971;50.028;9.258;2023-05-11T05:11:10;99170.09;;;7.74;100.00
13800;BME280;6971;50.028;9.258;2023-05-11T05:16:11;99167.16;;;7.80;100.00
13800;BME280;6971;50.028;9.258;2023-05-11T05:21:11;99178.19;;;8.06;100.00
13800;BME280;6971;50.028;9.258;2023-05-11T05:26:12;99174.19;;;8.16;100.00
13800;BME280;6971;50.028;9.258;2023-05-11T05:31:12;99182.50;;;8.26;100.00
13800;BME280;6971;50.028;9.258;2023-05-11T05:36:12;99188.56;;;8.46;100.00
13800;BME280;6971;50.028;9.258;2023-05-11T05:41:13;99188.25;;;8.52;100.00
13800;BME280;6971;50.028;9.258;2023-05-11T05:46:14;99191.47;;;8.59;100.00
13800;BME280;6971;50.028;9.258;2023-05-11T05:51:14;99192.16;;;8.80;100.00
13800;BME280;6971;50.028;9.258;2023-05-11T05:56:15;99199.81;;;9.03;100.00
13800;BME280;6971;50.028;9.258;2023-05-11T06:01:15;99202.56;;;9.17;100.00
13800;BME280;6971;50.028;9.258;2023-05-11T06:06:16;99203.88;;;9.26;100.00
13800;BME280;6971;50.028;9.258;2023-05-11T06:11:16;99204.84;;;9.41;100.00
13800;BME280;6971;50.028;9.258;2023-05-11T06:16:16;99206.44;;;9.61;100.00
13800;BME280;6971;50.028;9.258;2023-05-11T06:21:17;99215.59;;;9.70;100.00
13800;BME280;6971;50.028;9.258;2023-05-11T06:26:17;99214.25;;;9.95;100.00
13800;BME280;6971;50.028;9.258;2023-05-11T06:31:17;99209.06;;;10.10;100.00
13800;BME280;6971;50.028;9.258;2023-05-11T06:36:18;99215.03;;;10.29;100.00
13800;BME280;6971;50.028;9.258;2023-05-11T06:41:18;99207.06;;;10.47;100.00
13800;BME280;6971;50.028;9.258;2023-05-11T06:46:18;99214.69;;;10.52;100.00
13800;BME280;6971;50.028;9.258;2023-05-11T06:51:19;99207.19;;;10.60;100.00
13800;BME280;6971;50.028;9.258;2023-05-11T06:56:21;99204.09;;;10.68;100.00
13800;BME280;6971;50.028;9.258;2023-05-11T07:01:21;99207.91;;;10.78;100.00
13800;BME280;6971;50.028;9.258;2023-05-11T07:06:22;99219.84;;;10.84;100.00
13800;BME280;6971;50.028;9.258;2023-05-11T07:11:23;99222.66;;;10.50;100.00
13800;BME280;6971;50.028;9.258;2023-05-11T07:16:24;99219.94;;;10.36;100.00
13800;BME280;6971;50.028;9.258;2023-05-11T07:21:24;99214.06;;;10.63;100.00
13800;BME280;6971;50.028;9.258;2023-05-11T07:26:25;99224.66;;;11.08;100.00
13800;BME280;6971;50.028;9.258;2023-05-11T07:31:26;99222.06;;;10.92;100.00
13800;BME280;6971;50.028;9.258;2023-05-11T07:36:29;99232.47;;;11.09;100.00
13800;BME280;6971;50.028;9.258;2023-05-11T07:41:29;99230.50;;;11.13;100.00
13800;BME280;6971;50.028;9.258;2023-05-11T07:46:30;99226.72;;;11.03;100.00
13800;BME280;6971;50.028;9.258;2023-05-11T07:51:30;99229.84;;;11.24;100.00
13800;BME280;6971;50.028;9.258;2023-05-11T07:56:31;99228.63;;;10.84;100.00
13800;BME280;6971;50.028;9.258;2023-05-11T08:01:31;99225.69;;;11.20;100.00
13800;BME280;6971;50.028;9.258;2023-05-11T08:06:31;99229.44;;;11.01;100.00
13800;BME280;6971;50.028;9.258;2023-05-11T08:11:32;99230.34;;;11.00;100.00
13800;BME280;6971;50.028;9.258;2023-05-11T08:16:33;99226.25;;;11.25;100.00
13800;BME280;6971;50.028;9.258;2023-05-11T08:21:36;99233.13;;;11.28;100.00
13800;BME280;6971;50.028;9.258;2023-05-11T08:26:36;99225.56;;;11.07;100.00
13800;BME280;6971;50.028;9.258;2023-05-11T08:31:37;99230.91;;;11.36;100.00
13800;BME280;6971;50.028;9.258;2023-05-11T08:36:38;99224.13;;;11.61;100.00
13800;BME280;6971;50.028;9.258;2023-05-11T08:41:38;99223.94;;;11.79;100.00
13800;BME280;6971;50.028;9.258;2023-05-11T08:46:39;99227.94;;;12.13;100.00
13800;BME280;6971;50.028;9.258;2023-05-11T08:51:41;99227.75;;;12.17;100.00
13800;BME280;6971;50.028;9.258;2023-05-11T08:56:42;99228.56;;;12.32;100.00
13800;BME280;6971;50.028;9.258;2023-05-11T09:01:42;99226.00;;;11.88;100.00
13800;BME280;6971;50.028;9.258;2023-05-11T09:06:43;99236.38;;;12.06;100.00
13800;BME280;6971;50.028;9.258;2023-05-11T09:11:45;99235.53;;;11.76;100.00
13800;BME280;6971;50.028;9.258;2023-05-11T09:16:45;99240.94;;;12.59;100.00
13800;BME280;6971;50.028;9.258;2023-05-11T09:21:46;99242.47;;;12.76;100.00
13800;BME280;6971;50.028;9.258;2023-05-11T09:27:05;99239.09;;;12.87;100.00
13800;BME280;6971;50.028;9.258;2023-05-11T09:32:06;99237.75;;;11.97;100.00
13800;BME280;6971;50.028;9.258;2023-05-11T09:37:15;99239.34;;;12.56;100.00
13800;BME280;6971;50.028;9.258;2023-05-11T09:42:18;99232.75;;;12.49;100.00
13800;BME280;6971;50.028;9.258;2023-05-11T09:47:19;99237.59;;;12.70;100.00
13800;BME280;6971;50.028;9.258;2023-05-11T09:52:21;99239.28;;;12.71;100.00
13800;BME280;6971;50.028;9.258;2023-05-11T09:57:26;99237.75;;;12.53;100.00
13800;BME280;6971;50.028;9.258;2023-05-11T10:02:31;99230.22;;;12.47;100.00
13800;BME280;6971;50.028;9.258;2023-05-11T10:07:33;99228.28;;;12.77;100.00
13800;BME280;6971;50.028;9.258;2023-05-11T10:12:34;99235.72;;;12.85;100.00
13800;BME280;6971;50.028;9.258;2023-05-11T10:17:37;99231.00;;;13.16;100.00
13800;BME280;6971;50.028;9.258;2023-05-11T10:22:38;99232.50;;;13.33;100.00
13800;BME280;6971;50.028;9.258;2023-05-11T10:27:39;99220.41;;;13.29;100.00
13800;BME280;6971;50.028;9.258;2023-05-11T10:32:39;99226.84;;;12.99;100.00
13800;BME280;6971;50.028;9.258;2023-05-11T10:37:40;99227.34;;;12.78;100.00
13800;BME280;6971;50.028;9.258;2023-05-11T11:03:28;99218.03;;;12.45;100.00
13800;BME280;6971;50.028;9.258;2023-05-11T11:08:53;99213.91;;;12.40;100.00
13800;BME280;6971;50.028;9.258;2023-05-11T11:14:01;99225.38;;;12.54;100.00
13800;BME280;6971;50.028;9.258;2023-05-11T11:30:14;99208.09;;;12.76;100.00
13800;BME280;6971;50.028;9.258;2023-05-11T11:40:40;99212.34;;;12.91;100.00
13800;BME280;6971;50.028;9.258;2023-05-11T11:46:07;99206.53;;;13.12;100.00
13800;BME280;6971;50.028;9.258;2023-05-11T11:51:11;99213.38;;;12.76;100.00
13800;BME280;6971;50.028;9.258;2023-05-11T12:01:15;99208.78;;;13.18;100.00
13800;BME280;6971;50.028;9.258;2023-05-11T12:06:19;99211.19;;;13.22;100.00
13800;BME280;6971;50.028;9.258;2023-05-11T12:11:21;99210.38;;;13.34;100.00
13800;BME280;6971;50.028;9.258;2023-05-11T12:16:22;99210.94;;;13.52;100.00
13800;BME280;6971;50.028;9.258;2023-05-11T12:21:25;99206.22;;;13.30;100.00
13800;BME280;6971;50.028;9.258;2023-05-11T12:26:28;99203.41;;;13.20;100.00
13800;BME280;6971;50.028;9.258;2023-05-11T12:31:34;99210.69;;;13.29;100.00
13800;BME280;6971;50.028;9.258;2023-05-11T12:36:35;99203.41;;;13.20;100.00
13800;BME280;6971;50.028;9.258;2023-05-11T12:41:36;99198.31;;;13.17;100.00
13800;BME280;6971;50.028;9.258;2023-05-11T12:46:36;99200.94;;;13.30;100.00
13800;BME280;6971;50.028;9.258;2023-05-11T12:52:08;99198.00;;;13.48;100.00
13800;BME280;6971;50.028;9.258;2023-05-11T12:57:23;99188.13;;;13.76;100.00
13800;BME280;6971;50.028;9.258;2023-05-11T13:02:24;99182.72;;;13.38;100.00
13800;BME280;6971;50.028;9.258;2023-05-11T13:07:27;99187.16;;;13.77;100.00
13800;BME280;6971;50.028;9.258;2023-05-11T13:12:28;99182.72;;;14.02;100.00
13800;BME280;6971;50.028;9.258;2023-05-11T13:17:35;99170.13;;;14.05;100.00
13800;BME280;6971;50.028;9.258;2023-05-11T13:22:36;99167.56;;;13.79;100.00
13800;BME280;6971;50.028;9.258;2023-05-11T13:27:37;99164.75;;;14.18;100.00
13800;BME280;6971;50.028;9.258;2023-05-11T13:32:37;99161.91;;;14.21;100.00
13800;BME280;6971;50.028;9.258;2023-05-11T13:37:38;99156.13;;;14.03;100.00
13800;BME280;6971;50.028;9.258;2023-05-11T13:42:38;99158.44;;;13.70;100.00
13800;BME280;6971;50.028;9.258;2023-05-11T13:47:40;99156.34;;;13.76;100.00
13800;BME280;6971;50.028;9.258;2023-05-11T13:52:41;99144.84;;;13.51;100.00
13800;BME280;6971;50.028;9.258;2023-05-11T13:57:41;99142.75;;;13.17;100.00
13800;BME280;6971;50.028;9.258;2023-05-11T14:02:42;99148.22;;;13.53;100.00
13800;BME280;6971;50.028;9.258;2023-05-11T14:07:43;99141.47;;;13.10;100.00
13800;BME280;6971;50.028;9.258;2023-05-11T14:12:44;99138.00;;;13.09;100.00
13800;BME280;6971;50.028;9.258;2023-05-11T14:17:44;99129.19;;;13.22;100.00
13800;BME280;6971;50.028;9.258;2023-05-11T14:22:44;99132.03;;;13.05;100.00
13800;BME280;6971;50.028;9.258;2023-05-11T14:27:45;99134.28;;;13.12;100.00
13800;BME280;6971;50.028;9.258;2023-05-11T14:32:45;99134.38;;;13.10;100.00
13800;BME280;6971;50.028;9.258;2023-05-11T14:37:46;99138.28;;;13.17;100.00
13800;BME280;6971;50.028;9.258;2023-05-11T14:42:46;99132.38;;;13.27;100.00
13800;BME280;6971;50.028;9.258;2023-05-11T14:47:47;99129.94;;;13.24;100.00
13800;BME280;6971;50.028;9.258;2023-05-11T14:52:48;99128.97;;;12.99;100.00
13800;BME280;6971;50.028;9.258;2023-05-11T14:57:48;99122.22;;;12.82;100.00
13800;BME280;6971;50.028;9.258;2023-05-11T15:02:48;99115.44;;;12.77;100.00
13800;BME280;6971;50.028;9.258;2023-05-11T15:07:49;99124.44;;;12.75;100.00
13800;BME280;6971;50.028;9.258;2023-05-11T15:12:49;99126.44;;;12.71;100.00
13800;BME280;6971;50.028;9.258;2023-05-11T15:17:50;99117.75;;;12.56;100.00
13800;BME280;6971;50.028;9.258;2023-05-11T15:22:50;99125.34;;;12.48;100.00
13800;BME280;6971;50.028;9.258;2023-05-11T15:27:50;99128.97;;;12.60;100.00
13800;BME280;6971;50.028;9.258;2023-05-11T15:32:51;99136.78;;;12.61;100.00
13800;BME280;6971;50.028;9.258;2023-05-11T15:37:51;99132.78;;;12.82;100.00
13800;BME280;6971;50.028;9.258;2023-05-11T15:42:52;99131.03;;;12.42;100.00
13800;BME280;6971;50.028;9.258;2023-05-11T15:47:52;99137.59;;;12.49;100.00
13800;BME280;6971;50.028;9.258;2023-05-11T15:52:53;99127.47;;;12.43;100.00
13800;BME280;6971;50.028;9.258;2023-05-11T15:57:55;99131.41;;;12.63;100.00
13800;BME280;6971;50.028;9.258;2023-05-11T16:02:55;99132.25;;;12.76;100.00
13800;BME280;6971;50.028;9.258;2023-05-11T16:07:56;99127.06;;;12.75;100.00
13800;BME280;6971;50.028;9.258;2023-05-11T16:12:56;99128.97;;;12.73;100.00
13800;BME280;6971;50.028;9.258;2023-05-11T16:17:57;99125.78;;;12.55;100.00
13800;BME280;6971;50.028;9.258;2023-05-11T16:22:57;99127.56;;;12.54;100.00
13800;BME280;6971;50.028;9.258;2023-05-11T16:27:57;99125.88;;;12.12;100.00
13800;BME280;6971;50.028;9.258;2023-05-11T16:32:58;99137.78;;;12.05;100.00
13800;BME280;6971;50.028;9.258;2023-05-11T16:37:58;99133.34;;;11.91;100.00
13800;BME280;6971;50.028;9.258;2023-05-11T16:42:59;99124.00;;;12.00;100.00
13800;BME280;6971;50.028;9.258;2023-05-11T16:47:59;99130.44;;;11.96;100.00
13800;BME280;6971;50.028;9.258;2023-05-11T16:52:59;99119.47;;;12.02;100.00
13800;BME280;6971;50.028;9.258;2023-05-11T16:58:00;99122.34;;;11.84;100.00
13800;BME280;6971;50.028;9.258;2023-05-11T17:03:00;99120.88;;;11.80;100.00
13800;BME280;6971;50.028;9.258;2023-05-11T17:08:01;99125.03;;;11.70;100.00
13800;BME280;6971;50.028;9.258;2023-05-11T17:13:01;99120.78;;;11.67;100.00
13800;BME280;6971;50.028;9.258;2023-05-11T17:18:02;99127.28;;;11.76;100.00
13800;BME280;6971;50.028;9.258;2023-05-11T17:23:02;99125.66;;;11.73;100.00
13800;BME280;6971;50.028;9.258;2023-05-11T17:28:03;99125.34;;;11.65;100.00
13800;BME280;6971;50.028;9.258;2023-05-11T17:33:03;99131.28;;;11.54;100.00
13800;BME280;6971;50.028;9.258;2023-05-11T17:38:04;99132.78;;;11.58;100.00
13800;BME280;6971;50.028;9.258;2023-05-11T17:43:05;99121.84;;;11.65;100.00
13800;BME280;6971;50.028;9.258;2023-05-11T17:48:06;99127.50;;;11.58;100.00
13800;BME280;6971;50.028;9.258;2023-05-11T17:53:06;99130.03;;;11.74;100.00
13800;BME280;6971;50.028;9.258;2023-05-11T17:58:07;99126.38;;;11.62;100.00
13800;BME280;6971;50.028;9.258;2023-05-11T18:03:07;99131.28;;;11.54;100.00
13800;BME280;6971;50.028;9.258;2023-05-11T18:08:07;99128.66;;;11.54;100.00
13800;BME280;6971;50.028;9.258;2023-05-11T18:13:08;99136.66;;;11.53;100.00
13800;BME280;6971;50.028;9.258;2023-05-11T18:18:08;99130.63;;;11.65;100.00
13800;BME280;6971;50.028;9.258;2023-05-11T18:23:09;99132.06;;;11.42;100.00
13800;BME280;6971;50.028;9.258;2023-05-11T18:28:09;99135.97;;;11.64;100.00
13800;BME280;6971;50.028;9.258;2023-05-11T18:33:09;99137.41;;;11.55;100.00
13800;BME280;6971;50.028;9.258;2023-05-11T18:38:10;99136.56;;;11.54;100.00
13800;BME280;6971;50.028;9.258;2023-05-11T18:43:10;99131.47;;;11.51;100.00
13800;BME280;6971;50.028;9.258;2023-05-11T18:48:11;99139.47;;;11.49;100.00
13800;BME280;6971;50.028;9.258;2023-05-11T18:53:11;99141.16;;;11.51;100.00
13800;BME280;6971;50.028;9.258;2023-05-11T18:58:12;99147.78;;;11.58;100.00
13800;BME280;6971;50.028;9.258;2023-05-11T19:03:12;99150.13;;;11.48;100.00
13800;BME280;6971;50.028;9.258;2023-05-11T19:08:13;99158.59;;;11.53;100.00
13800;BME280;6971;50.028;9.258;2023-05-11T19:13:14;99162.28;;;11.65;100.00
13800;BME280;6971;50.028;9.258;2023-05-11T19:18:14;99165.50;;;11.56;100.00
13800;BME280;6971;50.028;9.258;2023-05-11T19:23:16;99169.00;;;11.42;100.00
13800;BME280;6971;50.028;9.258;2023-05-11T19:28:16;99169.16;;;11.39;100.00
13800;BME280;6971;50.028;9.258;2023-05-11T19:33:16;99167.31;;;11.41;100.00
13800;BME280;6971;50.028;9.258;2023-05-11T19:38:17;99171.44;;;11.45;100.00
13800;BME280;6971;50.028;9.258;2023-05-11T19:43:17;99170.03;;;11.39;100.00
13800;BME280;6971;50.028;9.258;2023-05-11T19:48:18;99171.81;;;11.39;100.00
13800;BME280;6971;50.028;9.258;2023-05-11T19:53:18;99167.94;;;11.44;100.00
13800;BME280;6971;50.028;9.258;2023-05-11T19:58:19;99169.16;;;11.39;100.00
13800;BME280;6971;50.028;9.258;2023-05-11T20:03:19;99174.84;;;11.32;100.00
13800;BME280;6971;50.028;9.258;2023-05-11T20:08:20;99174.91;;;11.45;100.00
13800;BME280;6971;50.028;9.258;2023-05-11T20:13:21;99173.16;;;11.31;100.00
13800;BME280;6971;50.028;9.258;2023-05-11T20:18:21;99169.81;;;11.28;100.00
13800;BME280;6971;50.028;9.258;2023-05-11T20:23:22;99169.81;;;11.28;100.00
13800;BME280;6971;50.028;9.258;2023-05-11T20:28:22;99164.47;;;11.29;100.00
13800;BME280;6971;50.028;9.258;2023-05-11T20:33:26;99148.16;;;11.22;100.00
13800;BME280;6971;50.028;9.258;2023-05-11T20:38:26;99150.53;;;11.27;100.00
13800;BME280;6971;50.028;9.258;2023-05-11T20:43:26;99149.94;;;11.07;100.00
13800;BME280;6971;50.028;9.258;2023-05-11T20:48:27;99144.00;;;11.18;100.00
13800;BME280;6971;50.028;9.258;2023-05-11T20:53:27;99141.78;;;11.12;100.00
13800;BME280;6971;50.028;9.258;2023-05-11T20:58:29;99142.97;;;11.06;100.00
13800;BME280;6971;50.028;9.258;2023-05-11T21:03:30;99148.09;;;11.09;100.00
13800;BME280;6971;50.028;9.258;2023-05-11T21:08:31;99136.59;;;11.10;100.00
13800;BME280;6971;50.028;9.258;2023-05-11T21:13:31;99139.00;;;10.99;100.00
13800;BME280;6971;50.028;9.258;2023-05-11T21:18:31;99129.78;;;10.92;100.00
13800;BME280;6971;50.028;9.258;2023-05-11T21:23:34;99130.91;;;10.88;100.00
13800;BME280;6971;50.028;9.258;2023-05-11T21:28:34;99126.78;;;11.13;100.00
13800;BME280;6971;50.028;9.258;2023-05-11T21:33:38;99143.53;;;10.97;100.00
13800;BME280;6971;50.028;9.258;2023-05-11T21:38:38;99132.22;;;10.95;100.00
13800;BME280;6971;50.028;9.258;2023-05-11T21:43:39;99132.22;;;10.95;100.00
13800;BME280;6971;50.028;9.258;2023-05-11T21:48:39;99141.72;;;10.97;100.00
13800;BME280;6971;50.028;9.258;2023-05-11T21:53:39;99142.59;;;10.98;100.00
13800;BME280;6971;50.028;9.258;2023-05-11T21:58:40;99145.88;;;11.02;100.00
13800;BME280;6971;50.028;9.258;2023-05-11T22:03:40;99142.69;;;10.96;100.00
13800;BME280;6971;50.028;9.258;2023-05-11T22:08:41;99139.09;;;10.97;100.00
13800;BME280;6971;50.028;9.258;2023-05-11T22:13:41;99152.00;;;10.88;100.00
13800;BME280;6971;50.028;9.258;2023-05-11T22:18:41;99144.75;;;10.91;100.00
13800;BME280;6971;50.028;9.258;2023-05-11T22:23:42;99150.50;;;10.98;100.00
13800;BME280;6971;50.028;9.258;2023-05-11T22:28:45;99161.63;;;11.03;100.00
13800;BME280;6971;50.028;9.258;2023-05-11T22:33:46;99159.47;;;11.10;100.00
13800;BME280;6971;50.028;9.258;2023-05-11T22:38:46;99162.56;;;11.02;100.00
13800;BME280;6971;50.028;9.258;2023-05-11T22:43:46;99164.25;;;11.03;100.00
13800;BME280;6971;50.028;9.258;2023-05-11T22:48:47;99163.88;;;10.95;100.00
13800;BME280;6971;50.028;9.258;2023-05-11T22:53:47;99164.81;;;10.94;100.00
13800;BME280;6971;50.028;9.258;2023-05-11T22:58:47;99177.91;;;10.95;100.00
13800;BME280;6971;50.028;9.258;2023-05-11T23:03:48;99171.78;;;10.95;100.00
13800;BME280;6971;50.028;9.258;2023-05-11T23:08:48;99172.06;;;10.90;100.00
13800;BME280;6971;50.028;9.258;2023-05-11T23:13:48;99173.28;;;10.84;100.00
13800;BME280;6971;50.028;9.258;2023-05-11T23:18:49;99165.53;;;10.81;100.00
13800;BME280;6971;50.028;9.258;2023-05-11T23:23:49;99177.25;;;10.92;100.00
13800;BME280;6971;50.028;9.258;2023-05-11T23:28:50;99170.06;;;10.79;100.00
13800;BME280;6971;50.028;9.258;2023-05-11T23:33:50;99181.06;;;10.72;100.00
13800;BME280;6971;50.028;9.258;2023-05-11T23:38:51;99178.50;;;10.70;100.00
13800;BME280;6971;50.028;9.258;2023-05-11T23:43:52;99172.56;;;10.66;100.00
13800;BME280;6971;50.028;9.258;2023-05-11T23:48:53;99181.09;;;10.55;100.00
13800;BME280;6971;50.028;9.258;2023-05-11T23:53:54;99177.13;;;10.48;100.00
13800;BME280;6971;50.028;9.258;2023-05-11T23:58:55;99172.56;;;10.66;100.00
